Park View, Iowa
Current Conditions -  °F | °C
As of 4:52 PM on Wednesday 26 Nov 2014 (Local Time) from KDVN Reporting Station
Overcast Overcast  
Wind Chill: 17°   Ceiling: 1200
Heat Index: 27°   Visibility: 8mi
Dew Point: 22°   Wind: 12mph
Humidity: 81%   Direction: 60°ENE
Pressure: 30.12"   Gusts: NA
Location:  41.666°N, 90.5607°W
Report Text: KDVN 262252Z AUTO 06010KT 8SM OVC012 M03/M06 A3012 RMK AO2 SLP210 T10281056
Loading
Personal Weather Stations






























Interactive Weather Map New forecast layout! Learn more

10-Day Weather Forecast

Advertisements
Track Severe Weather on mobile